Time;durP1;ratioP1;P1;durP2;ratioP2;P2;SDS_P1;SDS_P2;PMS_P1;PMS_P2;Temp;Humidity;BMP_temperature;BMP_pressure;BME280_temperature;BME280_humidity;BME280_pressure;Samples;Min_cycle;Max_cycle;Signal;HPM_P1;HPM_P2
2023/01/04 00:01:00;;;;;;;7.43;2.47;;;7.70;99.90;;;;;;5005648;28;20081;-62
2023/01/04 00:03:26;;;;;;;5.68;2.28;;;7.80;99.90;;;;;;5005804;28;20441;-61
2023/01/04 00:05:53;;;;;;;7.05;2.05;;;7.70;99.90;;;;;;5005548;28;20053;-61
2023/01/04 00:08:18;;;;;;;7.80;2.50;;;7.90;99.90;;;;;;5005771;28;20092;-61
2023/01/04 00:10:44;;;;;;;6.00;2.70;;;7.80;99.90;;;;;;5005256;28;20497;-60
2023/01/04 00:13:10;;;;;;;10.35;3.00;;;7.80;99.90;;;;;;5005699;28;20129;-61
2023/01/04 00:15:36;;;;;;;5.82;2.42;;;7.70;99.90;;;;;;5005546;28;20092;-61
2023/01/04 00:18:02;;;;;;;5.68;2.30;;;7.80;99.90;;;;;;5005810;28;20042;-61
2023/01/04 00:20:28;;;;;;;6.90;2.72;;;7.80;99.90;;;;;;5006995;28;20128;-60
2023/01/04 00:22:53;;;;;;;7.22;3.10;;;7.70;99.90;;;;;;5014791;28;20067;-61
2023/01/04 00:25:19;;;;;;;5.43;2.33;;;7.70;99.90;;;;;;5005574;28;20057;-61
2023/01/04 00:27:45;;;;;;;7.10;2.75;;;7.80;99.90;;;;;;5005433;28;20041;-61
2023/01/04 00:30:11;;;;;;;5.45;2.40;;;7.70;99.90;;;;;;5005277;28;20053;-61
2023/01/04 00:32:37;;;;;;;7.03;2.25;;;7.80;99.90;;;;;;5005470;28;20117;-61
2023/01/04 00:35:03;;;;;;;6.70;2.70;;;7.70;99.90;;;;;;5004803;28;20258;-61
2023/01/04 00:37:30;;;;;;;6.15;2.28;;;7.80;99.90;;;;;;5005229;28;20100;-60
2023/01/04 00:39:55;;;;;;;8.27;2.65;;;7.90;99.90;;;;;;5005888;28;20049;-60
2023/01/04 00:42:21;;;;;;;8.88;3.08;;;7.90;99.90;;;;;;5005257;28;20518;-61
2023/01/04 00:44:47;;;;;;;10.05;2.58;;;7.90;99.90;;;;;;5005182;28;20551;-61
2023/01/04 00:47:12;;;;;;;4.68;2.20;;;7.80;99.90;;;;;;5005256;28;20442;-61
2023/01/04 00:49:38;;;;;;;6.30;1.92;;;7.80;99.90;;;;;;5003145;28;20057;-59
2023/01/04 00:52:04;;;;;;;6.43;2.38;;;7.90;99.90;;;;;;5005064;28;20056;-61
2023/01/04 00:54:29;;;;;;;5.90;2.00;;;7.90;99.90;;;;;;5004778;28;20056;-62
2023/01/04 00:56:56;;;;;;;6.18;2.55;;;7.80;99.90;;;;;;5005614;28;20080;-60
2023/01/04 00:59:22;;;;;;;5.30;2.03;;;7.90;99.90;;;;;;5020428;28;20099;-61
2023/01/04 01:01:48;;;;;;;6.10;2.90;;;7.90;99.90;;;;;;5019583;28;20650;-61
2023/01/04 01:04:16;;;;;;;7.13;2.60;;;7.70;99.90;;;;;;5004629;28;20050;-61
2023/01/04 01:06:42;;;;;;;5.47;2.30;;;7.70;99.90;;;;;;5004803;28;20083;-61
2023/01/04 01:09:07;;;;;;;9.50;2.50;;;7.80;99.90;;;;;;5005123;28;20257;-61
2023/01/04 01:11:35;;;;;;;7.00;2.38;;;7.60;99.90;;;;;;5003937;28;20188;-61
2023/01/04 01:14:02;;;;;;;6.00;2.25;;;7.70;99.90;;;;;;5004829;28;20092;-61
2023/01/04 01:16:28;;;;;;;6.55;2.78;;;7.70;99.90;;;;;;5005065;28;20042;-61
2023/01/04 01:18:53;;;;;;;9.35;3.30;;;7.70;99.90;;;;;;5003627;28;20046;-61
2023/01/04 01:21:26;;;;;;;4.70;2.42;;;7.70;99.90;;;;;;5011433;28;20562;-61
2023/01/04 01:23:53;;;;;;;5.63;2.45;;;7.50;99.90;;;;;;5007783;28;20042;-61
2023/01/04 01:26:21;;;;;;;5.13;2.38;;;7.50;99.90;;;;;;5004472;28;20147;-61
2023/01/04 01:28:47;;;;;;;4.07;1.83;;;7.40;99.90;;;;;;5005118;28;20038;-61
2023/01/04 01:31:16;;;;;;;6.40;2.67;;;7.50;99.90;;;;;;5003817;28;20436;-61
2023/01/04 01:33:44;;;;;;;4.32;2.40;;;7.60;99.90;;;;;;5002619;28;20127;-61
2023/01/04 01:36:11;;;;;;;5.82;2.42;;;7.50;99.90;;;;;;5004952;28;20046;-61
2023/01/04 01:38:38;;;;;;;6.32;2.30;;;7.70;99.90;;;;;;5004860;28;20077;-61
2023/01/04 01:41:05;;;;;;;4.10;1.83;;;7.50;99.90;;;;;;5004347;28;20416;-61
2023/01/04 01:43:54;;;;;;;5.55;2.28;;;7.70;99.90;;;;;;5005298;28;20076;-61
2023/01/04 01:46:35;;;;;;;5.38;2.20;;;7.50;99.90;;;;;;5019293;28;20054;-61
2023/01/04 01:49:05;;;;;;;5.13;2.50;;;7.70;99.90;;;;;;5004468;28;20160;-61
2023/01/04 01:51:33;;;;;;;5.05;2.53;;;7.70;99.90;;;;;;5005054;28;20194;-61
2023/01/04 01:54:06;;;;;;;5.40;2.28;;;7.50;99.90;;;;;;4986610;28;20057;-61
2023/01/04 01:56:35;;;;;;;6.47;2.30;;;7.40;99.90;;;;;;5004736;28;20374;-61
2023/01/04 01:59:02;;;;;;;4.95;2.25;;;7.80;99.90;;;;;;5004669;28;20046;-60
2023/01/04 02:01:28;;;;;;;10.00;2.90;;;7.40;99.90;;;;;;5004021;28;20053;-61
2023/01/04 02:03:54;;;;;;;4.75;2.42;;;7.40;99.90;;;;;;5003490;28;20544;-60
2023/01/04 02:06:26;;;;;;;3.92;1.88;;;7.70;99.90;;;;;;5004071;28;20054;-60
2023/01/04 02:08:53;;;;;;;5.38;2.10;;;7.50;99.90;;;;;;5003537;28;20099;-61
2023/01/04 02:11:18;;;;;;;7.47;2.80;;;7.40;99.90;;;;;;5022204;28;20053;-61
2023/01/04 02:17:06;;;;;;;4.73;2.40;;;7.70;99.90;;;;;;5022815;28;20064;-61
2023/01/04 02:19:50;;;;;;;7.82;2.78;;;7.40;99.90;;;;;;5022747;28;20136;-61
2023/01/04 02:22:35;;;;;;;7.05;2.65;;;7.40;99.90;;;;;;5014372;28;20147;-61
2023/01/04 02:25:30;;;;;;;7.88;3.17;;;7.60;99.90;;;;;;5008233;28;20056;-60
2023/01/04 02:28:09;;;;;;;5.63;2.85;;;7.30;99.90;;;;;;5007131;28;20046;-61
2023/01/04 02:30:34;;;;;;;6.15;2.47;;;7.70;99.90;;;;;;5008551;28;20046;-60
2023/01/04 02:33:24;;;;;;;4.35;2.47;;;7.40;99.90;;;;;;5007347;28;20064;-61
2023/01/04 02:36:06;;;;;;;5.90;2.50;;;7.70;99.90;;;;;;5007093;28;20058;-61
2023/01/04 02:38:43;;;;;;;5.43;2.47;;;7.60;99.90;;;;;;5007317;28;20048;-61
2023/01/04 02:41:28;;;;;;;5.85;2.47;;;7.20;99.90;;;;;;5007481;28;20045;-61
2023/01/04 02:47:11;;;;;;;4.53;2.45;;;7.20;99.90;;;;;;5007351;28;20376;-61
2023/01/04 02:52:22;;;;;;;5.65;3.03;;;7.60;99.90;;;;;;5007109;28;20081;-60
2023/01/04 02:54:52;;;;;;;5.97;1.92;;;7.50;99.90;;;;;;5007440;28;20424;-61
2023/01/04 02:57:20;;;;;;;4.45;1.90;;;7.60;99.90;;;;;;5022154;28;20041;-61
2023/01/04 03:06:14;;;;;;;5.30;2.42;;;7.40;99.90;;;;;;5006199;28;20042;-61
2023/01/04 03:06:40;;;;;;;5.35;2.00;;;7.30;99.90;;;;;;5006577;28;20076;-61
2023/01/04 03:09:06;;;;;;;3.92;2.30;;;7.90;99.90;;;;;;5006796;28;20100;-60
2023/01/04 03:14:59;;;;;;;3.55;1.60;;;7.40;99.90;;;;;;5006483;28;20416;-61
2023/01/04 03:17:32;;;;;;;3.47;1.35;;;7.40;99.90;;;;;;5003109;28;20050;-61
2023/01/04 03:19:58;;;;;;;2.95;2.08;;;7.60;99.90;;;;;;5005664;28;20398;-60
2023/01/04 03:37:16;;;;;;;2.65;1.40;;;7.60;99.90;;;;;;5025825;28;20336;-61
2023/01/04 03:49:10;;;;;;;2.08;1.10;;;7.70;99.90;;;;;;5025815;28;20144;-61
2023/01/04 03:51:37;;;;;;;3.15;1.20;;;8.30;99.90;;;;;;5026438;28;20428;-61
2023/01/04 03:54:16;;;;;;;2.47;1.45;;;8.10;99.90;;;;;;5024461;28;20061;-60
2023/01/04 03:56:43;;;;;;;2.00;1.10;;;7.90;99.90;;;;;;5025404;28;20041;-60
2023/01/04 03:59:11;;;;;;;1.10;0.77;;;8.60;99.90;;;;;;5025648;28;20091;-61
2023/01/04 04:01:37;;;;;;;2.30;0.98;;;8.00;99.90;;;;;;5026370;28;20168;-60
2023/01/04 04:09:32;;;;;;;2.13;1.23;;;8.10;99.90;;;;;;5025728;28;20569;-61
2023/01/04 04:11:58;;;;;;;2.00;1.20;;;8.20;99.90;;;;;;5025412;28;20041;-60
2023/01/04 04:14:24;;;;;;;4.07;1.58;;;8.20;99.90;;;;;;5025692;28;20052;-61
2023/01/04 04:16:50;;;;;;;1.10;0.75;;;8.40;99.90;;;;;;5025445;28;20037;-60
2023/01/04 04:19:16;;;;;;;2.47;1.60;;;8.80;99.90;;;;;;5023539;28;20052;-61
2023/01/04 04:21:41;;;;;;;2.03;1.20;;;8.90;99.90;;;;;;5019149;28;20049;-61
2023/01/04 04:24:14;;;;;;;2.67;1.20;;;8.90;99.90;;;;;;5006885;28;20049;-60
2023/01/04 04:26:40;;;;;;;3.17;1.13;;;9.00;99.90;;;;;;5006313;28;20041;-60
2023/01/04 04:29:06;;;;;;;3.58;1.65;;;8.90;99.90;;;;;;5005191;28;20042;-61
2023/01/04 04:31:31;;;;;;;2.90;1.70;;;9.00;99.90;;;;;;5004346;28;20108;-60
2023/01/04 04:33:57;;;;;;;2.63;1.60;;;8.80;99.90;;;;;;5004460;28;20065;-60
2023/01/04 04:36:23;;;;;;;1.40;0.90;;;9.00;99.90;;;;;;5019922;28;20042;-60
2023/01/04 04:38:48;;;;;;;1.40;0.80;;;8.80;99.90;;;;;;5005476;28;20080;-61
2023/01/04 04:43:59;;;;;;;2.00;1.30;;;8.70;99.90;;;;;;5004675;28;20692;-61
2023/01/04 04:46:24;;;;;;;2.03;1.10;;;9.40;99.90;;;;;;5003290;28;20500;-60
2023/01/04 04:48:50;;;;;;;2.30;1.60;;;9.00;99.90;;;;;;5004604;28;20141;-61
2023/01/04 04:51:16;;;;;;;2.92;1.70;;;8.80;99.90;;;;;;5005122;28;20049;-61
2023/01/04 04:53:42;;;;;;;3.33;1.58;;;8.80;99.90;;;;;;5005554;28;20069;-60
2023/01/04 04:56:08;;;;;;;2.58;0.90;;;9.50;99.90;;;;;;5005563;28;20478;-61
2023/01/04 04:58:35;;;;;;;2.05;1.20;;;9.30;99.90;;;;;;5005436;28;20452;-61
2023/01/04 05:01:00;;;;;;;2.15;1.48;;;9.30;99.90;;;;;;5005391;28;20046;-60
2023/01/04 05:03:26;;;;;;;1.95;1.40;;;9.40;99.90;;;;;;5004144;28;20473;-58
2023/01/04 05:05:52;;;;;;;2.45;1.08;;;9.20;99.90;;;;;;5004275;28;20054;-61
2023/01/04 05:08:17;;;;;;;2.25;1.48;;;9.50;99.90;;;;;;5004712;28;20064;-61
2023/01/04 05:10:43;;;;;;;1.48;0.85;;;9.70;99.90;;;;;;5005517;28;20089;-60
2023/01/04 05:13:11;;;;;;;2.10;1.48;;;9.80;99.90;;;;;;5005322;28;20176;-61
2023/01/04 05:15:43;;;;;;;1.30;0.90;;;9.90;99.90;;;;;;5004471;28;20038;-61
2023/01/04 05:18:10;;;;;;;1.40;0.90;;;9.90;99.90;;;;;;5004622;28;20085;-60
2023/01/04 05:20:37;;;;;;;1.73;0.98;;;10.00;99.90;;;;;;5007356;28;20630;-61
2023/01/04 05:23:04;;;;;;;1.35;0.90;;;9.40;99.90;;;;;;5002251;28;20084;-60
2023/01/04 05:25:30;;;;;;;1.70;1.00;;;9.60;99.90;;;;;;5004747;28;20045;-61
2023/01/04 05:27:56;;;;;;;1.58;0.98;;;9.60;99.90;;;;;;5004509;28;20037;-61
2023/01/04 05:33:06;;;;;;;1.73;1.10;;;9.80;99.90;;;;;;5013292;28;20106;-60
2023/01/04 05:35:32;;;;;;;1.70;1.20;;;10.00;99.90;;;;;;5024172;28;20436;-60
2023/01/04 05:37:58;;;;;;;1.77;1.25;;;10.20;99.90;;;;;;5023480;28;20041;-61
2023/01/04 05:40:25;;;;;;;1.40;1.00;;;9.70;99.90;;;;;;5023742;28;20045;-61
2023/01/04 05:42:50;;;;;;;1.73;1.23;;;9.90;99.90;;;;;;5024012;28;20041;-61
2023/01/04 05:45:18;;;;;;;1.98;1.30;;;10.10;99.90;;;;;;5023537;28;20063;-61
2023/01/04 05:47:44;;;;;;;1.80;1.23;;;9.80;99.90;;;;;;5024637;28;20045;-61
2023/01/04 05:50:10;;;;;;;2.47;1.55;;;10.00;99.90;;;;;;5023913;28;20064;-61
2023/01/04 05:52:36;;;;;;;2.03;1.30;;;10.40;99.90;;;;;;5023130;28;20045;-59
2023/01/04 05:55:02;;;;;;;1.75;1.30;;;10.00;99.90;;;;;;5023493;28;20052;-61
2023/01/04 05:57:28;;;;;;;2.65;1.77;;;10.00;99.90;;;;;;5023183;28;20037;-61
2023/01/04 05:59:53;;;;;;;1.95;1.15;;;10.10;99.90;;;;;;5027691;28;20546;-60
2023/01/04 06:02:24;;;;;;;3.40;1.50;;;9.90;99.90;;;;;;5028101;28;20517;-60
2023/01/04 06:04:50;;;;;;;3.65;2.25;;;10.80;99.90;;;;;;5027070;28;20126;-61
2023/01/04 06:07:16;;;;;;;2.72;1.77;;;10.30;99.90;;;;;;5028533;28;20140;-60
2023/01/04 06:09:43;;;;;;;3.13;1.40;;;10.00;99.90;;;;;;5026505;28;20555;-61
2023/01/04 06:12:09;;;;;;;2.95;1.88;;;10.60;99.90;;;;;;5026354;28;20511;-60
2023/01/04 06:14:35;;;;;;;2.25;1.30;;;10.60;99.90;;;;;;5028009;28;20046;-60
2023/01/04 06:17:01;;;;;;;3.20;1.75;;;10.00;99.90;;;;;;5028266;28;20037;-61
2023/01/04 06:19:26;;;;;;;2.88;1.92;;;10.60;99.90;;;;;;5026673;28;20511;-61
2023/01/04 06:21:53;;;;;;;3.33;1.83;;;10.20;99.90;;;;;;5021227;28;20407;-61
2023/01/04 06:24:18;;;;;;;4.57;2.17;;;10.40;99.90;;;;;;5008141;28;20869;-61
2023/01/04 06:26:44;;;;;;;3.72;2.10;;;10.60;99.90;;;;;;5007744;28;20133;-61
2023/01/04 06:29:10;;;;;;;3.05;1.80;;;9.90;99.90;;;;;;5007721;28;20132;-61
2023/01/04 06:31:36;;;;;;;2.15;1.20;;;10.60;99.90;;;;;;5007834;28;20121;-61
2023/01/04 06:34:01;;;;;;;2.65;1.63;;;10.00;99.90;;;;;;5007086;28;20592;-60
2023/01/04 06:36:27;;;;;;;3.63;1.48;;;10.20;99.90;;;;;;5007431;28;20103;-61
2023/01/04 06:38:55;;;;;;;3.22;1.77;;;10.10;99.90;;;;;;5006606;28;20046;-62
2023/01/04 06:41:21;;;;;;;3.63;2.55;;;10.10;99.90;;;;;;5007428;28;20421;-61
2023/01/04 06:43:46;;;;;;;3.42;1.70;;;10.40;99.90;;;;;;4989608;28;20049;-61
2023/01/04 06:46:12;;;;;;;1.73;1.10;;;10.30;99.90;;;;;;5006314;28;20054;-61
2023/01/04 06:48:38;;;;;;;3.35;1.67;;;10.00;99.90;;;;;;5006578;28;20057;-61
2023/01/04 06:51:03;;;;;;;3.72;1.58;;;10.10;99.90;;;;;;5007526;28;20045;-61
2023/01/04 06:53:29;;;;;;;2.95;1.58;;;10.10;99.90;;;;;;5006636;28;20041;-60
2023/01/04 06:55:55;;;;;;;3.20;1.40;;;10.10;99.90;;;;;;5006833;28;20042;-62
2023/01/04 06:58:20;;;;;;;1.60;1.10;;;10.40;99.90;;;;;;5006726;28;20074;-61
2023/01/04 07:00:46;;;;;;;2.35;1.25;;;10.70;99.90;;;;;;5007291;28;20038;-61
2023/01/04 07:03:12;;;;;;;2.38;1.30;;;10.30;99.90;;;;;;5006785;28;20048;-61
2023/01/04 07:05:38;;;;;;;2.88;1.05;;;9.40;99.90;;;;;;5006564;28;20193;-61
2023/01/04 07:08:04;;;;;;;1.90;1.15;;;10.10;99.90;;;;;;5006571;28;20480;-59
2023/01/04 07:10:29;;;;;;;2.03;1.15;;;10.20;99.90;;;;;;5005985;28;20120;-61
2023/01/04 07:12:55;;;;;;;3.40;1.42;;;10.20;99.90;;;;;;5006963;28;20049;-61
2023/01/04 07:15:21;;;;;;;2.47;1.30;;;10.20;99.90;;;;;;5007376;28;20138;-61
2023/01/04 07:17:47;;;;;;;1.77;1.10;;;10.90;99.90;;;;;;5006081;28;20052;-61
2023/01/04 07:20:13;;;;;;;1.83;0.90;;;10.20;99.90;;;;;;5009301;28;20075;-61
2023/01/04 07:22:39;;;;;;;1.08;0.50;;;10.20;99.90;;;;;;5015429;28;20125;-59
2023/01/04 07:25:05;;;;;;;2.25;0.98;;;10.60;99.90;;;;;;5006761;28;20396;-61
2023/01/04 07:27:30;;;;;;;1.50;0.80;;;10.90;99.90;;;;;;5006362;28;20511;-61
2023/01/04 07:29:56;;;;;;;0.65;0.40;;;10.20;99.90;;;;;;5006636;28;20505;-60
2023/01/04 07:32:21;;;;;;;0.93;0.65;;;10.20;99.90;;;;;;5007315;28;20355;-61
2023/01/04 07:34:47;;;;;;;1.10;0.70;;;10.80;99.90;;;;;;5005347;28;20520;-61
2023/01/04 07:37:14;;;;;;;1.05;0.68;;;10.60;99.90;;;;;;5006469;28;20541;-61
2023/01/04 07:39:40;;;;;;;1.40;0.82;;;10.40;99.90;;;;;;5005523;28;20424;-61
2023/01/04 07:42:06;;;;;;;1.40;0.50;;;10.80;99.90;;;;;;5006233;28;20477;-61
2023/01/04 07:44:32;;;;;;;1.33;0.88;;;10.90;99.90;;;;;;5005953;28;20075;-61
2023/01/04 07:46:57;;;;;;;1.67;0.85;;;10.80;99.90;;;;;;5006566;28;20045;-61
2023/01/04 07:49:23;;;;;;;1.58;0.63;;;10.30;99.90;;;;;;5005855;28;20053;-60
2023/01/04 07:51:49;;;;;;;3.25;1.30;;;10.90;99.90;;;;;;5005994;28;20081;-61
2023/01/04 07:54:16;;;;;;;1.23;0.90;;;10.80;99.90;;;;;;5006152;28;20129;-61
2023/01/04 07:56:43;;;;;;;2.33;1.17;;;10.90;99.90;;;;;;5005714;28;20475;-61
2023/01/04 07:59:09;;;;;;;2.33;1.30;;;10.40;99.90;;;;;;5006494;28;20137;-61
2023/01/04 08:01:37;;;;;;;2.10;1.30;;;10.20;99.90;;;;;;5005964;28;20054;-61
2023/01/04 08:04:05;;;;;;;2.08;1.38;;;10.40;99.90;;;;;;5003915;28;20128;-61
2023/01/04 08:06:31;;;;;;;2.50;0.90;;;10.30;99.90;;;;;;5006019;28;20088;-61
2023/01/04 08:08:58;;;;;;;1.67;0.90;;;10.70;99.90;;;;;;5005666;28;20405;-61
2023/01/04 08:11:24;;;;;;;1.85;0.90;;;11.00;99.90;;;;;;5006117;28;20046;-61
2023/01/04 08:13:50;;;;;;;2.63;1.30;;;11.00;99.90;;;;;;5006243;28;20052;-61
2023/01/04 08:16:37;;;;;;;1.35;0.70;;;11.00;99.90;;;;;;5005483;28;20121;-61
2023/01/04 08:19:05;;;;;;;3.25;1.23;;;10.90;99.90;;;;;;5005015;28;20100;-61
2023/01/04 08:21:33;;;;;;;2.63;1.15;;;10.90;99.90;;;;;;5012771;28;20049;-60
2023/01/04 08:23:59;;;;;;;1.60;1.00;;;10.60;99.90;;;;;;5007934;28;20125;-61
2023/01/04 08:26:25;;;;;;;1.70;0.98;;;10.60;99.90;;;;;;5005927;28;20042;-61
2023/01/04 08:28:51;;;;;;;2.28;1.00;;;10.60;99.90;;;;;;5006013;28;20634;-61
2023/01/04 08:31:19;;;;;;;3.45;1.10;;;10.80;99.90;;;;;;5005103;28;20512;-61
2023/01/04 08:33:45;;;;;;;3.53;1.10;;;11.00;99.90;;;;;;5005212;28;20050;-61
2023/01/04 08:36:18;;;;;;;1.98;1.00;;;10.80;99.90;;;;;;5005266;28;20037;-61
2023/01/04 08:38:45;;;;;;;3.25;1.52;;;11.00;99.90;;;;;;5005018;28;20046;-61
2023/01/04 08:41:12;;;;;;;2.97;1.50;;;11.00;99.90;;;;;;5005258;28;20045;-61
2023/01/04 08:43:38;;;;;;;1.83;0.93;;;10.90;99.90;;;;;;5003663;28;20145;-60
2023/01/04 08:46:04;;;;;;;2.17;1.08;;;10.90;99.90;;;;;;5004069;28;20133;-61
2023/01/04 08:48:31;;;;;;;2.40;1.20;;;10.30;99.90;;;;;;5004408;28;20046;-61
2023/01/04 08:51:01;;;;;;;2.33;1.00;;;10.70;99.90;;;;;;5005375;28;20124;-62
2023/01/04 08:53:27;;;;;;;3.72;1.35;;;11.10;99.90;;;;;;5004779;28;20057;-62
2023/01/04 08:55:54;;;;;;;2.60;1.30;;;10.90;99.90;;;;;;5005699;28;20042;-61
2023/01/04 08:58:21;;;;;;;3.42;1.25;;;10.40;99.90;;;;;;5005284;28;20124;-62
2023/01/04 09:00:46;;;;;;;1.65;0.82;;;10.80;99.90;;;;;;5004713;28;20057;-61
2023/01/04 09:03:12;;;;;;;4.13;1.17;;;10.70;99.90;;;;;;5015920;28;20037;-61
2023/01/04 09:05:38;;;;;;;1.77;1.00;;;10.50;99.90;;;;;;5024553;28;20096;-62
2023/01/04 09:08:05;;;;;;;2.13;1.17;;;10.40;99.90;;;;;;5023394;28;20049;-62
2023/01/04 09:10:30;;;;;;;2.95;1.15;;;11.10;99.90;;;;;;5024109;28;20037;-61
2023/01/04 09:12:56;;;;;;;3.15;1.20;;;10.40;99.90;;;;;;5024490;28;20099;-61
2023/01/04 09:15:22;;;;;;;1.65;0.77;;;10.70;99.90;;;;;;5024277;28;20481;-62
2023/01/04 09:17:51;;;;;;;2.58;1.27;;;10.80;99.90;;;;;;5022809;28;20103;-61
2023/01/04 09:20:16;;;;;;;2.30;1.05;;;10.40;99.90;;;;;;5022235;28;20160;-61
2023/01/04 09:22:42;;;;;;;1.42;0.77;;;10.70;99.90;;;;;;5013780;28;20038;-61
2023/01/04 09:25:08;;;;;;;1.70;0.90;;;10.40;99.90;;;;;;5005039;28;20049;-61
2023/01/04 09:27:34;;;;;;;2.55;1.33;;;10.50;99.90;;;;;;5004164;28;20038;-61
2023/01/04 09:30:00;;;;;;;1.98;0.80;;;11.10;99.90;;;;;;5005436;28;20045;-61
2023/01/04 09:32:26;;;;;;;1.88;0.98;;;10.50;99.90;;;;;;5005613;28;20038;-61
2023/01/04 09:34:52;;;;;;;1.52;0.77;;;11.00;99.90;;;;;;5008368;28;20511;-61
2023/01/04 09:37:17;;;;;;;1.55;0.82;;;10.50;99.90;;;;;;5008380;28;20041;-61
2023/01/04 09:39:44;;;;;;;2.17;0.90;;;10.40;99.90;;;;;;5009067;28;20069;-61
2023/01/04 09:42:29;;;;;;;1.42;0.80;;;10.40;99.90;;;;;;5008608;28;20893;-61
2023/01/04 09:45:20;;;;;;;2.22;1.30;;;11.10;99.90;;;;;;5008274;28;20077;-61
2023/01/04 09:47:50;;;;;;;0.82;0.65;;;11.00;99.90;;;;;;5006769;28;20052;-61
2023/01/04 09:50:27;;;;;;;1.08;0.63;;;10.40;99.90;;;;;;5007908;28;20046;-61
2023/01/04 09:53:03;;;;;;;1.08;0.63;;;10.50;99.90;;;;;;5007684;28;20064;-61
2023/01/04 09:55:44;;;;;;;1.20;0.80;;;10.50;99.90;;;;;;5008527;28;20111;-61
2023/01/04 09:58:25;;;;;;;1.35;0.90;;;11.10;99.90;;;;;;5007502;28;20520;-61
2023/01/04 10:01:13;;;;;;;1.35;0.70;;;10.40;99.90;;;;;;5008410;28;20115;-62
2023/01/04 10:03:58;;;;;;;1.55;0.80;;;10.60;99.90;;;;;;5007124;28;20492;-62
2023/01/04 10:06:24;;;;;;;1.88;0.70;;;11.10;99.90;;;;;;5007327;28;20050;-61
2023/01/04 10:08:50;;;;;;;1.42;0.80;;;10.90;99.90;;;;;;5007447;28;20117;-61
2023/01/04 10:11:55;;;;;;;4.15;0.80;;;10.60;99.90;;;;;;5008133;28;20576;-62
2023/01/04 10:14:42;;;;;;;2.58;1.30;;;10.60;99.90;;;;;;4985589;28;20046;-62
2023/01/04 10:17:16;;;;;;;3.55;1.25;;;10.70;99.90;;;;;;5006555;28;20103;-62
2023/01/04 10:20:21;;;;;;;2.10;1.20;;;10.80;99.90;;;;;;5007523;28;20780;-61
2023/01/04 10:23:08;;;;;;;5.05;1.88;;;11.40;99.90;;;;;;5013827;28;20467;-62
2023/01/04 10:25:47;;;;;;;3.72;1.52;;;10.90;99.90;;;;;;5026399;28;20040;-62
2023/01/04 10:28:43;;;;;;;2.20;1.02;;;11.10;99.90;;;;;;5027127;28;20492;-62
2023/01/04 10:31:33;;;;;;;4.82;1.75;;;11.70;99.90;;;;;;5025071;28;20176;-61
2023/01/04 10:34:14;;;;;;;8.05;1.67;;;11.10;99.90;;;;;;5025533;28;20393;-62
2023/01/04 10:36:40;;;;;;;6.18;1.90;;;11.20;99.90;;;;;;5026546;28;20049;-62
2023/01/04 10:39:16;;;;;;;5.50;1.80;;;11.80;99.90;;;;;;5027250;28;20048;-61
2023/01/04 10:41:55;;;;;;;8.40;1.70;;;11.10;99.90;;;;;;5025096;28;20053;-61
2023/01/04 10:44:45;;;;;;;7.25;1.92;;;11.20;99.90;;;;;;5026712;28;20128;-61
2023/01/04 10:47:36;;;;;;;7.90;2.25;;;11.60;99.90;;;;;;5025475;28;20052;-61
2023/01/04 10:50:15;;;;;;;12.45;2.30;;;11.70;99.90;;;;;;5027550;28;20063;-62
2023/01/04 10:52:50;;;;;;;8.90;1.90;;;11.50;99.90;;;;;;5026734;28;20045;-62
2023/01/04 10:55:46;;;;;;;8.10;2.40;;;11.70;99.90;;;;;;5026581;28;20052;-61
2023/01/04 10:58:21;;;;;;;12.55;2.50;;;11.30;99.90;;;;;;5024792;28;20252;-61
2023/01/04 11:00:56;;;;;;;9.75;2.47;;;11.60;99.90;;;;;;5026610;28;20120;-61
2023/01/04 11:03:31;;;;;;;8.40;2.83;;;11.60;99.90;;;;;;5025818;28;20042;-62
2023/01/04 11:06:09;;;;;;;14.10;2.63;;;11.70;99.90;;;;;;5026248;28;20452;-62
2023/01/04 11:08:42;;;;;;;9.23;2.47;;;11.80;99.90;;;;;;5026525;28;20041;-60
2023/01/04 11:11:36;;;;;;;10.70;2.45;;;11.50;99.90;;;;;;5026346;28;20112;-62
2023/01/04 11:14:03;;;;;;;13.57;3.17;;;11.70;99.90;;;;;;5024197;28;20097;-62
2023/01/04 11:16:28;;;;;;;14.77;3.13;;;12.00;99.90;;;;;;5026332;28;20096;-61
2023/01/04 11:18:54;;;;;;;13.98;3.22;;;11.50;99.90;;;;;;5024252;28;20045;-62
2023/01/04 11:21:25;;;;;;;12.82;2.90;;;11.80;99.90;;;;;;5019092;28;20038;-62
2023/01/04 11:23:50;;;;;;;16.33;3.88;;;11.50;99.90;;;;;;5009616;28;20124;-61
2023/01/04 11:26:23;;;;;;;15.40;3.60;;;11.60;99.90;;;;;;5006276;28;20544;-61
2023/01/04 11:28:54;;;;;;;16.92;3.38;;;11.90;99.90;;;;;;5005813;28;20117;-61
2023/01/04 11:31:44;;;;;;;11.98;2.65;;;11.70;99.90;;;;;;5006162;28;20053;-61
2023/01/04 11:34:10;;;;;;;12.90;3.17;;;12.10;99.90;;;;;;5005470;28;20045;-62
2023/01/04 11:36:41;;;;;;;16.75;3.60;;;12.00;99.90;;;;;;5004732;28;20050;-62
2023/01/04 11:39:22;;;;;;;15.98;3.47;;;11.70;99.90;;;;;;5003469;28;20046;-60
2023/01/04 11:42:04;;;;;;;11.93;2.50;;;11.90;99.90;;;;;;5005075;28;20049;-62
2023/01/04 11:44:34;;;;;;;15.88;4.18;;;12.10;99.90;;;;;;5004774;28;20042;-60
2023/01/04 11:47:07;;;;;;;9.68;2.15;;;11.70;99.90;;;;;;5003980;28;20449;-61
2023/01/04 11:49:35;;;;;;;12.98;3.30;;;11.50;99.90;;;;;;5005247;28;20048;-61
2023/01/04 11:52:01;;;;;;;19.60;3.95;;;12.00;99.90;;;;;;5004204;28;20041;-61
2023/01/04 11:54:27;;;;;;;15.80;4.22;;;11.60;99.90;;;;;;5010270;28;20071;-61
2023/01/04 11:57:01;;;;;;;12.18;2.95;;;11.80;99.90;;;;;;5023210;28;20504;-61
2023/01/04 11:59:28;;;;;;;14.85;3.20;;;11.80;99.90;;;;;;5023920;28;20045;-61
2023/01/04 12:02:22;;;;;;;14.35;3.20;;;12.10;99.90;;;;;;5024357;28;20508;-61
2023/01/04 12:04:51;;;;;;;22.80;3.67;;;11.60;99.90;;;;;;5024169;28;20400;-62
2023/01/04 12:07:36;;;;;;;15.93;3.65;;;11.70;99.90;;;;;;5022122;28;20070;-61
2023/01/04 12:10:25;;;;;;;18.60;3.67;;;12.00;99.90;;;;;;5022329;28;20057;-62
2023/01/04 12:12:52;;;;;;;23.10;4.43;;;11.60;99.90;;;;;;5023603;28;20045;-61
2023/01/04 12:15:44;;;;;;;13.70;2.92;;;12.10;99.90;;;;;;5024141;28;20049;-61
2023/01/04 12:18:20;;;;;;;13.93;2.45;;;12.00;99.90;;;;;;5023152;28;20490;-61
2023/01/04 12:20:45;;;;;;;18.95;3.35;;;12.10;99.90;;;;;;5018277;28;20077;-60
2023/01/04 12:23:12;;;;;;;17.15;3.42;;;12.10;99.90;;;;;;5013562;28;20074;-61
2023/01/04 12:25:44;;;;;;;15.60;3.45;;;11.90;99.90;;;;;;5005384;28;20042;-61
2023/01/04 12:28:28;;;;;;;12.63;2.97;;;12.10;99.90;;;;;;5004843;28;20042;-62
2023/01/04 12:30:54;;;;;;;9.25;2.42;;;11.80;99.90;;;;;;5004347;28;20045;-61
2023/01/04 12:33:29;;;;;;;10.63;2.55;;;12.20;99.90;;;;;;5003349;28;20053;-60
2023/01/04 12:35:58;;;;;;;;;;;11.90;99.90;;;;;;5004044;28;20045;-61
2023/01/04 12:38:55;;;;;;;13.90;3.58;;;11.70;99.90;;;;;;5003893;28;20344;-61
2023/01/04 12:41:31;;;;;;;15.55;3.10;;;12.10;99.90;;;;;;5005099;28;20084;-61
2023/01/04 12:43:57;;;;;;;14.98;3.35;;;12.10;99.90;;;;;;5004483;28;20050;-60
2023/01/04 12:49:38;;;;;;;13.90;2.65;;;11.80;99.90;;;;;;5004011;28;20054;-60
2023/01/04 12:52:07;;;;;;;11.95;2.40;;;12.20;99.90;;;;;;4985665;28;20055;-62
2023/01/04 12:54:51;;;;;;;11.60;2.67;;;12.20;99.90;;;;;;5003885;28;20046;-61
2023/01/04 12:57:17;;;;;;;8.90;2.50;;;11.80;99.90;;;;;;5004383;28;20151;-62
2023/01/04 13:00:06;;;;;;;12.25;2.70;;;11.80;99.90;;;;;;5004640;28;20086;-63
2023/01/04 13:02:33;;;;;;;7.68;2.10;;;12.00;99.90;;;;;;5003712;28;20060;-62
2023/01/04 13:05:22;;;;;;;11.02;2.15;;;11.80;99.90;;;;;;5003939;28;20054;-62
2023/01/04 13:07:59;;;;;;;7.65;1.88;;;12.10;99.90;;;;;;5003967;28;20038;-62
2023/01/04 13:10:35;;;;;;;7.82;2.08;;;12.20;99.90;;;;;;5004445;28;20046;-62
2023/01/04 13:13:26;;;;;;;6.82;1.80;;;12.00;99.90;;;;;;5004571;28;20087;-62
2023/01/04 13:16:16;;;;;;;6.10;2.08;;;12.10;99.90;;;;;;5003709;28;20045;-62
2023/01/04 13:18:55;;;;;;;5.03;1.65;;;11.80;99.90;;;;;;5004180;28;20053;-62
2023/01/04 13:21:37;;;;;;;7.15;1.48;;;11.80;99.90;;;;;;5010725;28;20049;-63
2023/01/04 13:24:25;;;;;;;6.63;1.92;;;11.80;99.90;;;;;;5005577;28;20375;-62
2023/01/04 13:26:52;;;;;;;8.15;2.17;;;11.80;99.90;;;;;;5003217;28;20082;-62
2023/01/04 13:29:32;;;;;;;8.65;1.90;;;12.00;99.90;;;;;;5004391;28;20057;-62
2023/01/04 13:32:04;;;;;;;6.78;1.55;;;11.80;99.90;;;;;;5001382;28;20054;-62
2023/01/04 13:34:58;;;;;;;3.75;1.15;;;12.10;99.90;;;;;;5004171;28;20030;-63
2023/01/04 13:37:30;;;;;;;7.72;1.67;;;11.80;99.90;;;;;;5004875;28;20195;-61
2023/01/04 13:40:27;;;;;;;9.75;1.77;;;11.90;99.90;;;;;;5003894;28;20037;-62
2023/01/04 13:43:31;;;;;;;9.65;2.05;;;11.70;99.90;;;;;;5018893;28;20046;-62
2023/01/04 13:46:15;;;;;;;8.65;2.25;;;11.60;99.90;;;;;;4995105;28;20448;-63
2023/01/04 13:48:46;;;;;;;12.48;2.40;;;11.60;99.90;;;;;;5002503;28;20057;-61
2023/01/04 13:51:29;;;;;;;12.18;2.53;;;11.60;99.90;;;;;;5004318;28;20157;-61
2023/01/04 13:54:00;;;;;;;11.25;3.05;;;11.80;99.90;;;;;;5004141;28;20064;-62
2023/01/04 13:56:28;;;;;;;16.48;3.67;;;11.60;99.90;;;;;;5002966;28;20038;-64
2023/01/04 13:58:54;;;;;;;14.40;3.13;;;11.70;99.90;;;;;;5003824;28;20053;-64
2023/01/04 14:01:30;;;;;;;15.32;3.45;;;11.80;99.90;;;;;;5003487;28;20444;-64
2023/01/04 14:04:02;;;;;;;13.90;2.97;;;11.90;99.90;;;;;;5003335;28;20050;-62